sensor_id;sensor_type;location;lat;lon;timestamp;P1;durP1;ratioP1;P2;durP2;ratioP2
27758;SDS011;15148;48.972;12.794;2023-06-24T00:00:21;5.07;;;4.10;;
27758;SDS011;15148;48.972;12.794;2023-06-24T00:05:23;5.55;;;4.20;;
27758;SDS011;15148;48.972;12.794;2023-06-24T00:10:25;4.35;;;3.95;;
27758;SDS011;15148;48.972;12.794;2023-06-24T00:15:28;5.55;;;5.05;;
27758;SDS011;15148;48.972;12.794;2023-06-24T00:20:30;5.47;;;4.43;;
27758;SDS011;15148;48.972;12.794;2023-06-24T00:25:33;5.50;;;4.60;;
27758;SDS011;15148;48.972;12.794;2023-06-24T00:30:35;4.95;;;4.43;;
27758;SDS011;15148;48.972;12.794;2023-06-24T00:35:37;5.13;;;4.03;;
27758;SDS011;15148;48.972;12.794;2023-06-24T00:40:39;5.25;;;4.75;;
27758;SDS011;15148;48.972;12.794;2023-06-24T00:45:42;5.80;;;4.53;;
27758;SDS011;15148;48.972;12.794;2023-06-24T00:50:47;5.40;;;4.57;;
27758;SDS011;15148;48.972;12.794;2023-06-24T00:55:51;8.07;;;5.53;;
27758;SDS011;15148;48.972;12.794;2023-06-24T01:00:55;6.05;;;5.35;;
27758;SDS011;15148;48.972;12.794;2023-06-24T01:06:00;6.50;;;5.90;;
27758;SDS011;15148;48.972;12.794;2023-06-24T01:11:03;6.40;;;5.75;;
27758;SDS011;15148;48.972;12.794;2023-06-24T01:16:06;6.50;;;5.90;;
27758;SDS011;15148;48.972;12.794;2023-06-24T01:21:19;6.55;;;5.95;;
27758;SDS011;15148;48.972;12.794;2023-06-24T01:37:21;9.98;;;6.88;;
27758;SDS011;15148;48.972;12.794;2023-06-24T01:42:42;7.45;;;6.70;;
27758;SDS011;15148;48.972;12.794;2023-06-24T01:47:47;7.47;;;6.75;;
27758;SDS011;15148;48.972;12.794;2023-06-24T01:52:50;8.27;;;6.95;;
27758;SDS011;15148;48.972;12.794;2023-06-24T01:57:54;8.07;;;7.28;;
27758;SDS011;15148;48.972;12.794;2023-06-24T02:02:58;8.40;;;7.53;;
27758;SDS011;15148;48.972;12.794;2023-06-24T02:08:02;7.60;;;6.78;;
27758;SDS011;15148;48.972;12.794;2023-06-24T02:13:05;7.97;;;7.18;;
27758;SDS011;15148;48.972;12.794;2023-06-24T02:18:11;7.28;;;6.57;;
27758;SDS011;15148;48.972;12.794;2023-06-24T02:23:16;7.05;;;6.35;;
27758;SDS011;15148;48.972;12.794;2023-06-24T02:28:19;6.72;;;6.13;;
27758;SDS011;15148;48.972;12.794;2023-06-24T02:33:22;6.82;;;6.18;;
27758;SDS011;15148;48.972;12.794;2023-06-24T02:38:24;7.78;;;5.78;;
27758;SDS011;15148;48.972;12.794;2023-06-24T02:43:29;6.85;;;5.90;;
27758;SDS011;15148;48.972;12.794;2023-06-24T02:48:31;6.88;;;5.55;;
27758;SDS011;15148;48.972;12.794;2023-06-24T02:53:37;6.40;;;5.80;;
27758;SDS011;15148;48.972;12.794;2023-06-24T02:58:40;6.88;;;5.13;;
27758;SDS011;15148;48.972;12.794;2023-06-24T03:03:53;8.27;;;5.75;;
27758;SDS011;15148;48.972;12.794;2023-06-24T03:08:57;10.00;;;5.50;;
27758;SDS011;15148;48.972;12.794;2023-06-24T03:13:59;5.80;;;5.20;;
27758;SDS011;15148;48.972;12.794;2023-06-24T03:19:09;6.25;;;5.35;;
27758;SDS011;15148;48.972;12.794;2023-06-24T03:24:12;6.15;;;5.55;;
27758;SDS011;15148;48.972;12.794;2023-06-24T03:29:16;6.38;;;5.78;;
27758;SDS011;15148;48.972;12.794;2023-06-24T03:34:28;5.57;;;5.07;;
27758;SDS011;15148;48.972;12.794;2023-06-24T03:39:30;6.32;;;5.72;;
27758;SDS011;15148;48.972;12.794;2023-06-24T03:44:32;6.40;;;5.68;;
27758;SDS011;15148;48.972;12.794;2023-06-24T03:49:36;7.07;;;5.68;;
27758;SDS011;15148;48.972;12.794;2023-06-24T03:54:39;6.00;;;5.40;;
27758;SDS011;15148;48.972;12.794;2023-06-24T03:59:41;5.57;;;5.07;;
27758;SDS011;15148;48.972;12.794;2023-06-24T04:04:43;6.88;;;5.85;;
27758;SDS011;15148;48.972;12.794;2023-06-24T04:09:45;6.00;;;5.50;;
27758;SDS011;15148;48.972;12.794;2023-06-24T04:14:47;6.70;;;5.35;;
27758;SDS011;15148;48.972;12.794;2023-06-24T04:19:49;7.85;;;5.40;;
27758;SDS011;15148;48.972;12.794;2023-06-24T04:24:51;6.07;;;5.55;;
27758;SDS011;15148;48.972;12.794;2023-06-24T04:29:52;6.20;;;5.60;;
27758;SDS011;15148;48.972;12.794;2023-06-24T04:34:54;5.72;;;5.07;;
27758;SDS011;15148;48.972;12.794;2023-06-24T04:39:56;6.07;;;5.47;;
27758;SDS011;15148;48.972;12.794;2023-06-24T04:44:58;8.30;;;7.47;;
27758;SDS011;15148;48.972;12.794;2023-06-24T04:50:00;8.65;;;7.72;;
27758;SDS011;15148;48.972;12.794;2023-06-24T04:55:02;8.82;;;7.38;;
27758;SDS011;15148;48.972;12.794;2023-06-24T05:00:04;8.20;;;7.40;;
27758;SDS011;15148;48.972;12.794;2023-06-24T05:05:08;8.20;;;7.40;;
27758;SDS011;15148;48.972;12.794;2023-06-24T05:10:10;7.95;;;7.25;;
27758;SDS011;15148;48.972;12.794;2023-06-24T05:15:11;7.28;;;6.65;;
27758;SDS011;15148;48.972;12.794;2023-06-24T05:20:13;8.25;;;7.20;;
27758;SDS011;15148;48.972;12.794;2023-06-24T05:25:15;9.85;;;7.25;;
27758;SDS011;15148;48.972;12.794;2023-06-24T05:30:17;8.43;;;7.63;;
27758;SDS011;15148;48.972;12.794;2023-06-24T05:35:19;8.05;;;7.13;;
27758;SDS011;15148;48.972;12.794;2023-06-24T05:40:21;8.18;;;7.38;;
27758;SDS011;15148;48.972;12.794;2023-06-24T05:45:23;8.35;;;7.55;;
27758;SDS011;15148;48.972;12.794;2023-06-24T05:50:25;7.45;;;6.68;;
27758;SDS011;15148;48.972;12.794;2023-06-24T05:55:27;9.30;;;7.00;;
27758;SDS011;15148;48.972;12.794;2023-06-24T06:00:29;7.60;;;6.90;;
27758;SDS011;15148;48.972;12.794;2023-06-24T06:05:30;7.55;;;6.85;;
27758;SDS011;15148;48.972;12.794;2023-06-24T06:10:33;8.32;;;7.53;;
27758;SDS011;15148;48.972;12.794;2023-06-24T06:15:35;7.93;;;6.75;;
27758;SDS011;15148;48.972;12.794;2023-06-24T06:20:37;8.40;;;7.60;;
27758;SDS011;15148;48.972;12.794;2023-06-24T06:25:39;7.95;;;7.25;;
27758;SDS011;15148;48.972;12.794;2023-06-24T06:30:41;8.90;;;7.40;;
27758;SDS011;15148;48.972;12.794;2023-06-24T06:35:43;7.85;;;7.10;;
27758;SDS011;15148;48.972;12.794;2023-06-24T06:40:45;8.45;;;7.68;;
27758;SDS011;15148;48.972;12.794;2023-06-24T06:45:47;8.77;;;7.85;;
27758;SDS011;15148;48.972;12.794;2023-06-24T06:50:49;8.88;;;8.05;;
27758;SDS011;15148;48.972;12.794;2023-06-24T06:55:51;7.90;;;7.05;;
27758;SDS011;15148;48.972;12.794;2023-06-24T07:00:53;9.43;;;7.90;;
27758;SDS011;15148;48.972;12.794;2023-06-24T07:05:55;8.85;;;7.80;;
27758;SDS011;15148;48.972;12.794;2023-06-24T07:10:58;8.65;;;6.82;;
27758;SDS011;15148;48.972;12.794;2023-06-24T07:16:00;8.73;;;7.93;;
27758;SDS011;15148;48.972;12.794;2023-06-24T07:21:02;8.48;;;7.68;;
27758;SDS011;15148;48.972;12.794;2023-06-24T07:26:04;8.18;;;7.40;;
27758;SDS011;15148;48.972;12.794;2023-06-24T07:31:05;9.45;;;7.97;;
27758;SDS011;15148;48.972;12.794;2023-06-24T07:36:07;9.80;;;7.80;;
27758;SDS011;15148;48.972;12.794;2023-06-24T07:41:12;8.27;;;7.47;;
27758;SDS011;15148;48.972;12.794;2023-06-24T07:46:14;9.90;;;8.95;;
27758;SDS011;15148;48.972;12.794;2023-06-24T07:51:16;8.23;;;7.53;;
27758;SDS011;15148;48.972;12.794;2023-06-24T07:56:19;8.27;;;7.47;;
27758;SDS011;15148;48.972;12.794;2023-06-24T08:01:21;8.55;;;7.65;;
27758;SDS011;15148;48.972;12.794;2023-06-24T08:06:23;9.32;;;7.55;;
27758;SDS011;15148;48.972;12.794;2023-06-24T08:11:25;8.35;;;7.15;;
27758;SDS011;15148;48.972;12.794;2023-06-24T08:16:27;10.20;;;7.40;;
27758;SDS011;15148;48.972;12.794;2023-06-24T08:21:31;10.05;;;7.63;;
27758;SDS011;15148;48.972;12.794;2023-06-24T08:26:33;9.10;;;7.78;;
27758;SDS011;15148;48.972;12.794;2023-06-24T08:31:35;8.95;;;7.72;;
27758;SDS011;15148;48.972;12.794;2023-06-24T08:36:38;8.75;;;7.88;;
27758;SDS011;15148;48.972;12.794;2023-06-24T08:41:40;11.18;;;8.15;;
27758;SDS011;15148;48.972;12.794;2023-06-24T08:46:45;8.32;;;7.50;;
27758;SDS011;15148;48.972;12.794;2023-06-24T08:51:48;9.07;;;8.00;;
27758;SDS011;15148;48.972;12.794;2023-06-24T08:56:56;8.70;;;7.90;;
27758;SDS011;15148;48.972;12.794;2023-06-24T09:01:58;8.38;;;7.57;;
27758;SDS011;15148;48.972;12.794;2023-06-24T09:07:00;12.68;;;9.38;;
27758;SDS011;15148;48.972;12.794;2023-06-24T09:12:02;9.02;;;8.23;;
27758;SDS011;15148;48.972;12.794;2023-06-24T09:17:04;9.18;;;8.18;;
27758;SDS011;15148;48.972;12.794;2023-06-24T09:22:07;8.45;;;7.25;;
27758;SDS011;15148;48.972;12.794;2023-06-24T09:27:10;12.90;;;6.63;;
27758;SDS011;15148;48.972;12.794;2023-06-24T09:32:14;10.27;;;6.93;;
27758;SDS011;15148;48.972;12.794;2023-06-24T09:37:22;8.52;;;6.82;;
27758;SDS011;15148;48.972;12.794;2023-06-24T09:42:26;6.80;;;6.13;;
27758;SDS011;15148;48.972;12.794;2023-06-24T09:47:28;7.82;;;6.60;;
27758;SDS011;15148;48.972;12.794;2023-06-24T09:52:30;7.10;;;6.40;;
27758;SDS011;15148;48.972;12.794;2023-06-24T09:57:34;6.53;;;5.93;;
27758;SDS011;15148;48.972;12.794;2023-06-24T10:02:38;7.65;;;5.47;;
27758;SDS011;15148;48.972;12.794;2023-06-24T10:07:40;6.47;;;5.15;;
27758;SDS011;15148;48.972;12.794;2023-06-24T10:12:43;6.40;;;5.30;;
27758;SDS011;15148;48.972;12.794;2023-06-24T10:17:45;7.03;;;5.30;;
27758;SDS011;15148;48.972;12.794;2023-06-24T10:22:47;6.72;;;5.32;;
27758;SDS011;15148;48.972;12.794;2023-06-24T10:27:55;11.30;;;8.52;;
27758;SDS011;15148;48.972;12.794;2023-06-24T10:32:57;5.78;;;5.28;;
27758;SDS011;15148;48.972;12.794;2023-06-24T10:37:59;7.00;;;5.18;;
27758;SDS011;15148;48.972;12.794;2023-06-24T10:43:04;5.85;;;5.18;;
27758;SDS011;15148;48.972;12.794;2023-06-24T10:48:24;5.40;;;4.90;;
27758;SDS011;15148;48.972;12.794;2023-06-24T10:53:26;6.85;;;5.13;;
27758;SDS011;15148;48.972;12.794;2023-06-24T10:58:31;5.20;;;4.80;;
27758;SDS011;15148;48.972;12.794;2023-06-24T11:03:34;7.78;;;4.50;;
27758;SDS011;15148;48.972;12.794;2023-06-24T11:08:42;5.70;;;4.40;;
27758;SDS011;15148;48.972;12.794;2023-06-24T11:13:47;4.55;;;3.95;;
27758;SDS011;15148;48.972;12.794;2023-06-24T11:18:50;6.20;;;4.28;;
27758;SDS011;15148;48.972;12.794;2023-06-24T11:23:53;5.03;;;4.30;;
27758;SDS011;15148;48.972;12.794;2023-06-24T11:28:55;5.82;;;4.13;;
27758;SDS011;15148;48.972;12.794;2023-06-24T11:33:57;5.30;;;4.25;;
27758;SDS011;15148;48.972;12.794;2023-06-24T11:38:59;5.40;;;4.20;;
27758;SDS011;15148;48.972;12.794;2023-06-24T11:44:01;6.93;;;4.60;;
27758;SDS011;15148;48.972;12.794;2023-06-24T11:49:06;4.90;;;4.05;;
27758;SDS011;15148;48.972;12.794;2023-06-24T11:54:08;4.72;;;4.28;;
27758;SDS011;15148;48.972;12.794;2023-06-24T11:59:17;4.13;;;3.72;;
27758;SDS011;15148;48.972;12.794;2023-06-24T12:04:21;10.07;;;4.30;;
27758;SDS011;15148;48.972;12.794;2023-06-24T12:14:31;6.40;;;4.65;;
27758;SDS011;15148;48.972;12.794;2023-06-24T12:19:32;4.75;;;4.25;;
27758;SDS011;15148;48.972;12.794;2023-06-24T12:24:34;4.80;;;4.15;;
27758;SDS011;15148;48.972;12.794;2023-06-24T12:29:36;5.28;;;4.82;;
27758;SDS011;15148;48.972;12.794;2023-06-24T12:34:38;4.60;;;4.20;;
27758;SDS011;15148;48.972;12.794;2023-06-24T12:39:40;6.03;;;3.47;;
27758;SDS011;15148;48.972;12.794;2023-06-24T12:44:42;4.32;;;3.92;;
27758;SDS011;15148;48.972;12.794;2023-06-24T12:49:44;7.63;;;6.03;;
27758;SDS011;15148;48.972;12.794;2023-06-24T12:54:46;6.22;;;4.63;;
27758;SDS011;15148;48.972;12.794;2023-06-24T12:59:48;4.72;;;4.20;;
27758;SDS011;15148;48.972;12.794;2023-06-24T13:04:50;5.00;;;4.28;;
27758;SDS011;15148;48.972;12.794;2023-06-24T13:09:55;5.15;;;4.25;;
27758;SDS011;15148;48.972;12.794;2023-06-24T13:14:58;11.30;;;4.22;;
27758;SDS011;15148;48.972;12.794;2023-06-24T13:19:59;3.97;;;3.55;;
27758;SDS011;15148;48.972;12.794;2023-06-24T13:25:03;3.83;;;3.53;;
27758;SDS011;15148;48.972;12.794;2023-06-24T13:30:05;3.92;;;3.55;;
27758;SDS011;15148;48.972;12.794;2023-06-24T13:35:08;5.80;;;5.20;;
27758;SDS011;15148;48.972;12.794;2023-06-24T13:40:10;4.47;;;3.70;;
27758;SDS011;15148;48.972;12.794;2023-06-24T13:45:12;3.97;;;3.60;;
27758;SDS011;15148;48.972;12.794;2023-06-24T13:50:14;4.38;;;3.67;;
27758;SDS011;15148;48.972;12.794;2023-06-24T13:55:16;3.75;;;3.45;;
27758;SDS011;15148;48.972;12.794;2023-06-24T14:00:18;3.95;;;3.55;;
27758;SDS011;15148;48.972;12.794;2023-06-24T14:05:21;4.47;;;3.75;;
27758;SDS011;15148;48.972;12.794;2023-06-24T14:10:23;5.28;;;3.85;;
27758;SDS011;15148;48.972;12.794;2023-06-24T14:15:25;5.05;;;3.92;;
27758;SDS011;15148;48.972;12.794;2023-06-24T14:20:27;4.72;;;4.07;;
27758;SDS011;15148;48.972;12.794;2023-06-24T14:25:29;3.85;;;3.53;;
27758;SDS011;15148;48.972;12.794;2023-06-24T14:30:31;3.60;;;3.17;;
27758;SDS011;15148;48.972;12.794;2023-06-24T14:35:33;3.80;;;3.47;;
27758;SDS011;15148;48.972;12.794;2023-06-24T14:40:35;3.58;;;3.28;;
27758;SDS011;15148;48.972;12.794;2023-06-24T14:45:37;3.95;;;3.42;;
27758;SDS011;15148;48.972;12.794;2023-06-24T14:50:40;4.90;;;3.30;;
27758;SDS011;15148;48.972;12.794;2023-06-24T14:55:42;4.07;;;3.67;;
27758;SDS011;15148;48.972;12.794;2023-06-24T15:00:44;6.65;;;5.10;;
27758;SDS011;15148;48.972;12.794;2023-06-24T15:05:46;5.82;;;3.53;;
27758;SDS011;15148;48.972;12.794;2023-06-24T15:10:48;4.75;;;3.20;;
27758;SDS011;15148;48.972;12.794;2023-06-24T15:15:52;4.15;;;3.75;;
27758;SDS011;15148;48.972;12.794;2023-06-24T15:20:57;3.75;;;3.30;;
27758;SDS011;15148;48.972;12.794;2023-06-24T15:25:59;3.92;;;3.35;;
27758;SDS011;15148;48.972;12.794;2023-06-24T15:31:01;4.00;;;3.60;;
27758;SDS011;15148;48.972;12.794;2023-06-24T15:36:03;5.63;;;4.07;;
27758;SDS011;15148;48.972;12.794;2023-06-24T15:41:05;4.10;;;3.17;;
27758;SDS011;15148;48.972;12.794;2023-06-24T15:46:07;4.57;;;3.17;;
27758;SDS011;15148;48.972;12.794;2023-06-24T15:51:09;3.40;;;3.10;;
27758;SDS011;15148;48.972;12.794;2023-06-24T15:56:11;3.83;;;3.45;;
27758;SDS011;15148;48.972;12.794;2023-06-24T16:01:13;4.93;;;3.55;;
27758;SDS011;15148;48.972;12.794;2023-06-24T16:06:15;4.18;;;3.40;;
27758;SDS011;15148;48.972;12.794;2023-06-24T16:11:17;3.60;;;3.30;;
27758;SDS011;15148;48.972;12.794;2023-06-24T16:16:19;4.85;;;3.95;;
27758;SDS011;15148;48.972;12.794;2023-06-24T16:21:21;3.45;;;3.15;;
27758;SDS011;15148;48.972;12.794;2023-06-24T16:26:23;4.05;;;3.63;;
27758;SDS011;15148;48.972;12.794;2023-06-24T16:31:26;4.43;;;3.63;;
27758;SDS011;15148;48.972;12.794;2023-06-24T16:36:28;4.75;;;3.72;;
27758;SDS011;15148;48.972;12.794;2023-06-24T16:41:30;7.47;;;3.88;;
27758;SDS011;15148;48.972;12.794;2023-06-24T16:46:33;4.10;;;3.47;;
27758;SDS011;15148;48.972;12.794;2023-06-24T16:51:35;4.65;;;3.50;;
27758;SDS011;15148;48.972;12.794;2023-06-24T16:56:38;5.45;;;3.70;;
27758;SDS011;15148;48.972;12.794;2023-06-24T17:01:40;4.30;;;3.60;;
27758;SDS011;15148;48.972;12.794;2023-06-24T17:06:42;4.07;;;3.60;;
27758;SDS011;15148;48.972;12.794;2023-06-24T17:11:44;4.60;;;3.63;;
27758;SDS011;15148;48.972;12.794;2023-06-24T17:16:45;5.47;;;3.70;;
27758;SDS011;15148;48.972;12.794;2023-06-24T17:21:47;4.30;;;3.90;;
27758;SDS011;15148;48.972;12.794;2023-06-24T17:26:50;5.05;;;3.92;;
27758;SDS011;15148;48.972;12.794;2023-06-24T17:31:52;4.18;;;3.70;;
27758;SDS011;15148;48.972;12.794;2023-06-24T17:36:55;4.50;;;4.10;;
27758;SDS011;15148;48.972;12.794;2023-06-24T17:41:57;4.50;;;4.05;;
27758;SDS011;15148;48.972;12.794;2023-06-24T17:46:59;5.22;;;4.00;;
27758;SDS011;15148;48.972;12.794;2023-06-24T17:52:01;6.65;;;5.88;;
27758;SDS011;15148;48.972;12.794;2023-06-24T17:57:04;7.53;;;6.72;;
27758;SDS011;15148;48.972;12.794;2023-06-24T18:02:07;7.07;;;6.35;;
27758;SDS011;15148;48.972;12.794;2023-06-24T18:07:09;9.57;;;7.82;;
27758;SDS011;15148;48.972;12.794;2023-06-24T18:12:12;11.07;;;7.78;;
27758;SDS011;15148;48.972;12.794;2023-06-24T18:17:14;7.18;;;6.47;;
27758;SDS011;15148;48.972;12.794;2023-06-24T18:22:16;7.32;;;6.35;;
27758;SDS011;15148;48.972;12.794;2023-06-24T18:27:18;7.20;;;6.38;;
27758;SDS011;15148;48.972;12.794;2023-06-24T18:32:23;9.07;;;6.90;;
27758;SDS011;15148;48.972;12.794;2023-06-24T18:37:25;7.90;;;6.60;;
27758;SDS011;15148;48.972;12.794;2023-06-24T18:42:27;8.68;;;7.30;;
27758;SDS011;15148;48.972;12.794;2023-06-24T18:47:29;10.30;;;7.00;;
27758;SDS011;15148;48.972;12.794;2023-06-24T18:52:31;9.15;;;7.18;;
27758;SDS011;15148;48.972;12.794;2023-06-24T18:57:33;8.35;;;7.45;;
27758;SDS011;15148;48.972;12.794;2023-06-24T19:02:35;8.70;;;7.78;;
27758;SDS011;15148;48.972;12.794;2023-06-24T19:07:37;9.20;;;8.27;;
27758;SDS011;15148;48.972;12.794;2023-06-24T19:12:39;12.52;;;8.82;;
27758;SDS011;15148;48.972;12.794;2023-06-24T19:17:41;11.57;;;9.13;;
27758;SDS011;15148;48.972;12.794;2023-06-24T19:22:43;10.63;;;9.48;;
27758;SDS011;15148;48.972;12.794;2023-06-24T19:27:44;11.52;;;10.10;;
27758;SDS011;15148;48.972;12.794;2023-06-24T19:32:46;12.30;;;9.73;;
27758;SDS011;15148;48.972;12.794;2023-06-24T19:37:48;11.73;;;9.82;;
27758;SDS011;15148;48.972;12.794;2023-06-24T19:42:50;12.35;;;10.07;;
27758;SDS011;15148;48.972;12.794;2023-06-24T19:47:52;10.13;;;9.02;;
27758;SDS011;15148;48.972;12.794;2023-06-24T19:52:54;11.02;;;9.55;;
27758;SDS011;15148;48.972;12.794;2023-06-24T19:57:56;11.15;;;9.35;;
27758;SDS011;15148;48.972;12.794;2023-06-24T20:02:59;12.73;;;10.52;;
27758;SDS011;15148;48.972;12.794;2023-06-24T20:08:02;15.85;;;10.15;;
27758;SDS011;15148;48.972;12.794;2023-06-24T20:13:05;13.45;;;10.27;;
27758;SDS011;15148;48.972;12.794;2023-06-24T20:18:07;13.48;;;10.57;;
27758;SDS011;15148;48.972;12.794;2023-06-24T20:23:09;12.32;;;10.70;;
27758;SDS011;15148;48.972;12.794;2023-06-24T20:28:11;12.85;;;10.95;;
27758;SDS011;15148;48.972;12.794;2023-06-24T20:33:13;12.38;;;10.73;;
27758;SDS011;15148;48.972;12.794;2023-06-24T20:38:15;14.30;;;10.77;;
27758;SDS011;15148;48.972;12.794;2023-06-24T20:43:17;12.85;;;10.68;;
27758;SDS011;15148;48.972;12.794;2023-06-24T20:48:23;12.15;;;9.95;;
27758;SDS011;15148;48.972;12.794;2023-06-24T20:53:25;16.23;;;10.35;;
27758;SDS011;15148;48.972;12.794;2023-06-24T20:58:27;12.18;;;9.25;;
27758;SDS011;15148;48.972;12.794;2023-06-24T21:03:29;12.20;;;9.32;;
27758;SDS011;15148;48.972;12.794;2023-06-24T21:08:31;12.35;;;9.82;;
27758;SDS011;15148;48.972;12.794;2023-06-24T21:13:33;10.90;;;8.80;;
27758;SDS011;15148;48.972;12.794;2023-06-24T21:18:35;11.70;;;9.35;;
27758;SDS011;15148;48.972;12.794;2023-06-24T21:23:37;13.68;;;8.48;;
27758;SDS011;15148;48.972;12.794;2023-06-24T21:28:39;10.10;;;8.15;;
27758;SDS011;15148;48.972;12.794;2023-06-24T21:33:40;9.32;;;8.40;;
27758;SDS011;15148;48.972;12.794;2023-06-24T21:38:44;10.00;;;8.82;;
27758;SDS011;15148;48.972;12.794;2023-06-24T21:43:46;9.80;;;8.43;;
27758;SDS011;15148;48.972;12.794;2023-06-24T21:48:48;10.32;;;8.48;;
27758;SDS011;15148;48.972;12.794;2023-06-24T21:53:50;10.80;;;8.13;;
27758;SDS011;15148;48.972;12.794;2023-06-24T21:58:52;10.73;;;8.32;;
27758;SDS011;15148;48.972;12.794;2023-06-24T22:03:53;7.95;;;7.15;;
27758;SDS011;15148;48.972;12.794;2023-06-24T22:08:55;9.65;;;7.18;;
27758;SDS011;15148;48.972;12.794;2023-06-24T22:13:58;7.78;;;6.85;;
27758;SDS011;15148;48.972;12.794;2023-06-24T22:19:00;9.80;;;7.78;;
27758;SDS011;15148;48.972;12.794;2023-06-24T22:24:02;8.82;;;7.32;;
27758;SDS011;15148;48.972;12.794;2023-06-24T22:29:04;14.27;;;9.80;;
27758;SDS011;15148;48.972;12.794;2023-06-24T22:34:06;10.65;;;7.93;;
27758;SDS011;15148;48.972;12.794;2023-06-24T22:39:10;8.90;;;7.35;;
27758;SDS011;15148;48.972;12.794;2023-06-24T22:44:13;9.57;;;7.95;;
27758;SDS011;15148;48.972;12.794;2023-06-24T22:49:15;9.68;;;7.00;;
27758;SDS011;15148;48.972;12.794;2023-06-24T22:54:17;9.35;;;6.85;;
27758;SDS011;15148;48.972;12.794;2023-06-24T22:59:19;8.70;;;6.72;;
27758;SDS011;15148;48.972;12.794;2023-06-24T23:04:21;6.45;;;5.50;;
27758;SDS011;15148;48.972;12.794;2023-06-24T23:09:23;8.32;;;6.25;;
27758;SDS011;15148;48.972;12.794;2023-06-24T23:14:25;8.25;;;5.78;;
27758;SDS011;15148;48.972;12.794;2023-06-24T23:19:28;7.25;;;5.13;;
27758;SDS011;15148;48.972;12.794;2023-06-24T23:24:30;7.15;;;5.57;;
27758;SDS011;15148;48.972;12.794;2023-06-24T23:29:32;6.32;;;5.03;;
27758;SDS011;15148;48.972;12.794;2023-06-24T23:34:37;7.85;;;5.78;;
27758;SDS011;15148;48.972;12.794;2023-06-24T23:39:41;6.50;;;5.63;;
27758;SDS011;15148;48.972;12.794;2023-06-24T23:44:44;6.70;;;5.25;;
27758;SDS011;15148;48.972;12.794;2023-06-24T23:49:46;7.88;;;5.60;;
27758;SDS011;15148;48.972;12.794;2023-06-24T23:54:48;8.63;;;6.25;;
27758;SDS011;15148;48.972;12.794;2023-06-24T23:59:50;7.93;;;6.93;;
